San Antonio, Colorado
Current Conditions -  °F | °C
As of 8:52 AM on Saturday 22 Nov 2014 (Local Time) from KALS Reporting Station
Clear Clear  
Wind Chill: 26°   Ceiling: Unl
Heat Index: 26°   Visibility: 10mi
Dew Point: 17°   Wind: 3mph
Humidity: 69%   Direction: 240°WSW
Pressure: 30.1"   Gusts: NA
Location:  37.1816°N, 106.262°W
Report Text: KALS 221552Z AUTO 24003KT 10SM CLR M03/M08 A3010 RMK AO2 SLP219 T10331083
Loading
Personal Weather Stations






























Interactive Weather Map New forecast layout! Learn more

10-Day Weather Forecast

Advertisements
Track Severe Weather on mobile